Main page
METAR-TAF:

METAR-TAF

Airports :

Neil Armstrong Airport

Wapakoneta, Ohio, United States

latitude: 40-29-37N, longitude: 084-17-53W, elevation: 912 ft

Current weather observation

The report was made 15 minutes ago, at 03:55 UTC
Wind 14 mph from the Southwest
Temperature 77°F
Humidity 47%
Pressure 29.89 in. Hg
Visibility: 10 miles
Clear sky

METAR: KAXV 030355Z AUTO 23012KT 10SM CLR 25/13 A2989 RMK AO2

Time: 00:10 (04:10 UTC)


TAF: missing

Weather observations and forecasts of more than 4000 airports (METAR and TAF reports).

The available stations are represented by yellow and red dots on the map.

Hover mouse over dot to see the name of the station.

Then click to see weather observations and forecasts.

To change the map : click on the green buttons with a black cross to zoom in, on the green button with a dash to zoom out, or on the green arrows for adjacent maps.


METAR-TAF: